Terminal Aerodrome Forecast
Issued by NWS

Home | Current Version | Previous Version | Text Only | Print | Product List | Glossary On
Versions: 1 2 3 4 5 6 7 8 9 10 11 12 13 14 15 16 17 18
000
FTUS41 KBGM 242000 AAA
TAFITH
TAF AMD
KITH 242053Z 2421/2518 32010G16KT P6SM SKC
     FM242300 35005KT P6SM SKC
     FM250400 VRB02KT P6SM SCT250
     FM251500 15007KT P6SM BKN100=

USA.gov is the U.S. government's official web portal to all federal, state and local government web resources and services.